Time;durP1;ratioP1;P1;durP2;ratioP2;P2;SDS_P1;SDS_P2;PMS_P1;PMS_P2;Temp;Humidity;BMP_temperature;BMP_pressure;BME280_temperature;BME280_humidity;BME280_pressure;Samples;Min_cycle;Max_cycle;Signal;HPM_P1;HPM_P2
2022/10/30 00:01:06;;;;;;;18.15;7.15;;;;;;;15.50;100.00;164619.78;5093020;28;20036;-60
2022/10/30 00:03:31;;;;;;;12.13;7.72;;;;;;;15.53;100.00;164626.56;5091826;28;20036;-60
2022/10/30 00:05:56;;;;;;;18.88;8.30;;;;;;;15.52;100.00;164625.22;5092937;28;20069;-60
2022/10/30 00:08:25;;;;;;;14.55;6.55;;;;;;;15.42;100.00;164596.75;5090735;28;20044;-60
2022/10/30 00:10:52;;;;;;;15.02;7.65;;;;;;;15.26;100.00;164554.78;5093645;28;20103;-60
2022/10/30 00:13:18;;;;;;;15.45;7.70;;;;;;;15.26;100.00;164554.78;5091535;28;20064;-60
2022/10/30 00:15:51;;;;;;;15.57;7.60;;;;;;;15.20;100.00;164541.28;5092699;28;20024;-60
2022/10/30 00:18:17;;;;;;;15.40;8.93;;;;;;;15.14;100.00;164523.66;5091566;28;20044;-60
2022/10/30 00:20:42;;;;;;;23.10;10.40;;;;;;;15.01;100.00;164489.81;5093184;28;20421;-60
2022/10/30 00:23:08;;;;;;;18.00;8.93;;;;;;;14.98;100.00;164481.72;5079638;28;20051;-60
2022/10/30 00:25:35;;;;;;;18.77;7.57;;;;;;;14.87;100.00;164453.31;5086379;28;20417;-60
2022/10/30 00:28:01;;;;;;;12.98;9.27;;;;;;;14.85;100.00;164449.25;5087183;28;20032;-60
2022/10/30 00:30:26;;;;;;;16.13;8.68;;;;;;;14.84;100.00;164445.16;5072342;28;20472;-60
2022/10/30 00:32:51;;;;;;;22.20;8.82;;;;;;;14.82;100.00;164441.13;5071029;28;20516;-60
2022/10/30 00:35:17;;;;;;;15.65;8.57;;;;;;;14.77;100.00;164427.59;5072420;28;20462;-60
2022/10/30 00:37:42;;;;;;;29.60;13.70;;;;;;;14.71;100.00;164412.69;5071021;28;20040;-60
2022/10/30 00:40:14;;;;;;;22.75;8.93;;;;;;;14.71;100.00;164411.31;5072291;28;20380;-60
2022/10/30 00:42:39;;;;;;;11.38;8.50;;;;;;;14.68;100.00;164403.22;5071009;28;20071;-60
2022/10/30 00:45:05;;;;;;;13.93;8.85;;;;;;;14.69;100.00;164405.94;5071482;28;20850;-60
2022/10/30 00:47:40;;;;;;;15.23;7.85;;;;;;;14.65;100.00;164395.03;5071063;28;20454;-60
2022/10/30 00:50:11;;;;;;;18.63;9.07;;;;;;;14.59;100.00;164381.53;5082727;28;20073;-60
2022/10/30 00:52:40;;;;;;;17.13;9.73;;;;;;;14.58;100.00;164377.47;5090415;28;20063;-60
2022/10/30 00:55:14;;;;;;;20.95;8.00;;;;;;;14.59;100.00;164380.19;5092231;28;20285;-60
2022/10/30 00:57:41;;;;;;;14.88;8.55;;;;;;;14.54;100.00;164368.00;5090207;28;20440;-60
2022/10/30 01:00:08;;;;;;;15.65;8.40;;;;;;;14.56;100.00;164373.38;5071412;28;20036;-60
2022/10/30 01:02:33;;;;;;;13.65;7.55;;;;;;;14.59;100.00;164381.53;5070699;28;20048;-60
2022/10/30 01:05:00;;;;;;;18.40;9.20;;;;;;;14.64;100.00;164392.31;5071595;28;20024;-60
2022/10/30 01:07:25;;;;;;;15.88;7.45;;;;;;;14.65;100.00;164395.03;5078498;28;20067;-60
2022/10/30 01:09:51;;;;;;;14.40;8.93;;;;;;;14.67;100.00;164401.84;5081249;28;20465;-60
2022/10/30 01:12:16;;;;;;;23.52;9.75;;;;;;;14.64;100.00;164393.72;5070240;28;20525;-60
2022/10/30 01:14:47;;;;;;;17.60;8.38;;;;;;;14.64;100.00;164393.72;5079412;28;20399;-60
2022/10/30 01:17:21;;;;;;;16.08;8.23;;;;;;;14.68;100.00;164403.22;5090542;28;20070;-60
2022/10/30 01:19:58;;;;;;;21.05;10.15;;;;;;;14.68;100.00;164403.22;5090994;28;20101;-60
2022/10/30 01:22:39;;;;;;;18.67;9.02;;;;;;;14.69;100.00;164405.94;5074785;28;20077;-60
2022/10/30 01:25:37;;;;;;;22.00;7.90;;;;;;;14.63;100.00;164389.66;5071431;28;20032;-59
2022/10/30 01:28:34;;;;;;;13.30;8.35;;;;;;;14.59;100.00;164381.53;5046747;28;20059;-60
2022/10/30 01:31:11;;;;;;;26.25;10.95;;;;;;;14.49;100.00;164354.44;5071143;28;20028;-60
2022/10/30 01:34:13;;;;;;;18.05;8.82;;;;;;;14.51;100.00;164359.88;5070019;28;20040;-60
2022/10/30 01:36:49;;;;;;;15.25;8.20;;;;;;;14.51;100.00;164359.88;5067910;28;20041;-60
2022/10/30 01:39:20;;;;;;;20.88;8.93;;;;;;;14.45;100.00;164343.66;5083389;28;20024;-60
2022/10/30 01:41:45;;;;;;;17.13;7.78;;;;;;;14.39;100.00;164327.41;5079190;28;20048;-60
2022/10/30 01:44:17;;;;;;;14.02;8.13;;;;;;;14.45;100.00;164343.66;5073172;28;20035;-60
2022/10/30 01:46:54;;;;;;;19.60;7.38;;;;;;;14.51;100.00;164358.53;5090178;28;20500;-60
2022/10/30 01:49:31;;;;;;;17.70;9.02;;;;;;;14.54;100.00;164368.00;5091254;28;20104;-60
2022/10/30 01:52:22;;;;;;;18.10;11.30;;;;;;;14.53;100.00;164365.28;5089288;28;20062;-60
2022/10/30 01:55:06;;;;;;;20.80;10.88;;;;;;;14.45;100.00;164343.66;5091275;28;20020;-60
2022/10/30 01:58:01;;;;;;;23.02;9.43;;;;;;;14.41;100.00;164332.78;5089970;28;20036;-60
2022/10/30 02:00:26;;;;;;;15.00;9.20;;;;;;;14.40;100.00;164330.13;5091397;28;20383;-60
2022/10/30 02:02:52;;;;;;;18.17;10.05;;;;;;;14.41;100.00;164332.78;5080473;28;20045;-60
2022/10/30 02:05:31;;;;;;;18.30;9.23;;;;;;;14.37;100.00;164322.00;5070402;28;20035;-60
2022/10/30 02:07:56;;;;;;;14.50;8.40;;;;;;;14.36;100.00;164319.28;5069583;28;20036;-60
2022/10/30 02:10:22;;;;;;;18.05;9.82;;;;;;;14.34;100.00;164313.84;5088443;28;20020;-60
2022/10/30 02:12:47;;;;;;;25.00;8.98;;;;;;;14.37;100.00;164322.00;5089231;28;20109;-60
2022/10/30 02:15:13;;;;;;;33.35;10.40;;;;;;;14.36;100.00;164319.28;5089263;28;20386;-60
2022/10/30 02:17:39;;;;;;;16.55;9.15;;;;;;;14.36;100.00;164320.66;5075372;28;20048;-60
2022/10/30 02:20:05;;;;;;;16.65;8.05;;;;;;;14.34;100.00;164313.84;5070378;28;20024;-60
2022/10/30 02:22:31;;;;;;;16.23;9.73;;;;;;;14.25;100.00;164292.25;5069160;28;20040;-60
2022/10/30 02:24:56;;;;;;;10.73;7.38;;;;;;;14.15;100.00;164263.84;5070646;28;20032;-60
2022/10/30 02:27:21;;;;;;;17.38;8.18;;;;;;;14.03;100.00;164232.72;5081612;28;20105;-60
2022/10/30 02:29:48;;;;;;;20.13;8.40;;;;;;;13.94;100.00;164209.69;5090734;28;20144;-60
2022/10/30 02:32:13;;;;;;;18.95;9.57;;;;;;;13.88;100.00;164194.84;5088765;28;20197;-60
2022/10/30 02:34:38;;;;;;;32.20;9.07;;;;;;;13.83;100.00;164181.31;5090547;28;20020;-60
2022/10/30 02:37:04;;;;;;;19.27;8.75;;;;;;;13.76;100.00;164162.38;5088864;28;20059;-60
2022/10/30 02:39:29;;;;;;;17.98;8.82;;;;;;;13.68;100.00;164140.72;5090820;28;20020;-60
2022/10/30 02:41:54;;;;;;;10.57;8.45;;;;;;;13.57;100.00;164113.72;5089007;28;20040;-60
2022/10/30 02:44:20;;;;;;;11.55;8.77;;;;;;;13.41;100.00;164071.75;5086908;28;20031;-60
2022/10/30 02:46:45;;;;;;;14.10;9.77;;;;;;;13.28;100.00;164036.56;5075051;28;20078;-60
2022/10/30 02:49:10;;;;;;;15.60;9.88;;;;;;;13.10;100.00;163989.25;5090212;28;20069;-60
2022/10/30 02:51:36;;;;;;;20.35;10.02;;;;;;;12.96;100.00;163954.13;5074110;28;20523;-60
2022/10/30 02:54:01;;;;;;;19.83;10.02;;;;;;;12.84;100.00;163921.69;5070275;28;20078;-60
2022/10/30 02:56:27;;;;;;;18.50;10.10;;;;;;;12.75;100.00;163897.34;5069049;28;20385;-59
2022/10/30 02:58:54;;;;;;;15.27;9.35;;;;;;;12.62;100.00;163864.88;5071378;28;20028;-60
2022/10/30 03:01:19;;;;;;;17.80;9.93;;;;;;;12.53;100.00;163840.59;5068619;28;20450;-59
2022/10/30 03:03:45;;;;;;;15.30;9.48;;;;;;;12.45;100.00;163818.97;5070608;28;20017;-60
2022/10/30 03:06:14;;;;;;;22.63;10.43;;;;;;;12.40;100.00;163805.47;5069782;28;20021;-60
2022/10/30 03:08:40;;;;;;;17.65;10.57;;;;;;;12.34;100.00;163791.91;5071772;28;20072;-60
2022/10/30 03:11:11;;;;;;;20.25;10.73;;;;;;;12.27;100.00;163771.66;5090409;28;20031;-60
2022/10/30 03:13:39;;;;;;;22.52;11.55;;;;;;;12.20;100.00;163754.09;5088665;28;20036;-60
2022/10/30 03:16:08;;;;;;;16.95;11.25;;;;;;;12.15;100.00;163741.91;5071670;28;20020;-60
2022/10/30 03:18:34;;;;;;;25.10;10.38;;;;;;;12.08;100.00;163721.69;5068854;28;20629;-60
2022/10/30 03:21:01;;;;;;;16.38;11.20;;;;;;;12.02;100.00;163706.81;5069636;28;20028;-60
2022/10/30 03:23:27;;;;;;;28.58;12.95;;;;;;;11.99;100.00;163698.72;5068833;28;20069;-60
2022/10/30 03:25:54;;;;;;;18.60;9.55;;;;;;;11.94;100.00;163686.50;5074710;28;20024;-60
2022/10/30 03:28:20;;;;;;;18.02;11.27;;;;;;;11.89;100.00;163674.34;5088323;28;20111;-59
2022/10/30 03:30:45;;;;;;;18.35;9.73;;;;;;;11.84;100.00;163659.47;5090257;28;20013;-60
2022/10/30 03:33:11;;;;;;;20.88;10.98;;;;;;;11.78;100.00;163643.28;5088558;28;20040;-60
2022/10/30 03:35:36;;;;;;;21.27;12.52;;;;;;;11.73;100.00;163632.44;5089643;28;20652;-60
2022/10/30 03:38:01;;;;;;;19.80;11.93;;;;;;;11.70;100.00;163622.97;5081534;28;20058;-60
2022/10/30 03:40:27;;;;;;;27.70;13.48;;;;;;;11.73;100.00;163632.44;5080769;28;20020;-59
2022/10/30 03:42:52;;;;;;;30.20;13.48;;;;;;;11.86;100.00;163664.91;5089468;28;20044;-60
2022/10/30 03:45:17;;;;;;;26.05;11.10;;;;;;;11.95;100.00;163689.16;5093513;28;20039;-60
2022/10/30 03:47:43;;;;;;;18.75;11.75;;;;;;;12.02;100.00;163708.19;5092049;28;20047;-60
2022/10/30 03:50:08;;;;;;;24.17;11.93;;;;;;;12.08;100.00;163721.69;5093225;28;20471;-60
2022/10/30 03:52:33;;;;;;;26.98;12.60;;;;;;;12.18;100.00;163750.03;5092139;28;20032;-60
2022/10/30 03:54:59;;;;;;;24.67;12.50;;;;;;;12.32;100.00;163786.50;5090425;28;20150;-60
2022/10/30 03:57:24;;;;;;;27.00;12.18;;;;;;;12.35;100.00;163794.63;5071615;28;20044;-60
2022/10/30 03:59:49;;;;;;;17.48;10.52;;;;;;;12.43;100.00;163813.53;5088822;28;20032;-59
2022/10/30 04:02:15;;;;;;;18.70;11.27;;;;;;;12.38;100.00;163802.75;5092032;28;20093;-60
2022/10/30 04:04:40;;;;;;;28.63;12.63;;;;;;;12.37;100.00;163800.03;5092892;28;20028;-60
2022/10/30 04:07:05;;;;;;;17.15;10.90;;;;;;;12.44;100.00;163816.25;5091767;28;20097;-60
2022/10/30 04:09:31;;;;;;;14.75;10.63;;;;;;;12.47;100.00;163824.38;5093283;28;20021;-60
2022/10/30 04:11:56;;;;;;;13.50;11.13;;;;;;;12.54;100.00;163843.28;5091522;28;20463;-60
2022/10/30 04:14:21;;;;;;;25.58;12.50;;;;;;;12.62;100.00;163864.88;5093162;28;20370;-59
2022/10/30 04:16:47;;;;;;;16.35;11.13;;;;;;;12.67;100.00;163878.44;5091873;28;20337;-60
2022/10/30 04:19:12;;;;;;;14.23;10.05;;;;;;;12.57;100.00;163851.38;5073099;28;20021;-60
2022/10/30 04:21:37;;;;;;;16.30;10.60;;;;;;;12.48;100.00;163827.03;5072782;28;20044;-59
2022/10/30 04:24:03;;;;;;;29.35;11.63;;;;;;;12.44;100.00;163816.25;5087855;28;20031;-60
2022/10/30 04:26:28;;;;;;;27.15;14.18;;;;;;;12.38;100.00;163802.75;5070955;28;20028;-60
2022/10/30 04:28:54;;;;;;;19.13;11.50;;;;;;;12.27;100.00;163773.00;5072754;28;20032;-60
2022/10/30 04:31:19;;;;;;;20.98;11.50;;;;;;;12.19;100.00;163752.75;5071020;28;20029;-59
2022/10/30 04:33:44;;;;;;;18.83;11.77;;;;;;;12.10;100.00;163727.09;5072379;28;20534;-60
2022/10/30 04:36:10;;;;;;;21.33;12.35;;;;;;;12.00;100.00;163702.75;5072462;28;20094;-59
2022/10/30 04:38:35;;;;;;;18.05;12.27;;;;;;;11.91;100.00;163678.38;5071161;28;20032;-59
2022/10/30 04:41:00;;;;;;;23.13;13.52;;;;;;;11.82;100.00;163654.06;5071881;28;20039;-60
2022/10/30 04:43:26;;;;;;;20.80;12.23;;;;;;;11.71;100.00;163627.06;5078160;28;20039;-59
2022/10/30 04:45:51;;;;;;;18.27;11.63;;;;;;;11.61;100.00;163600.03;5092930;28;20024;-60
2022/10/30 04:48:17;;;;;;;26.90;12.18;;;;;;;11.54;100.00;163581.13;5090526;28;20063;-60
2022/10/30 04:50:43;;;;;;;24.85;11.05;;;;;;;11.48;100.00;163564.94;5080369;28;20029;-60
2022/10/30 04:53:14;;;;;;;35.83;16.75;;;;;;;11.36;100.00;163535.19;5070286;28;20101;-60
2022/10/30 04:55:39;;;;;;;18.50;12.68;;;;;;;11.26;100.00;163508.22;5072116;28;20479;-60
2022/10/30 04:58:06;;;;;;;26.83;14.55;;;;;;;11.17;100.00;163485.22;5077721;28;20032;-60
2022/10/30 05:00:32;;;;;;;25.77;16.85;;;;;;;11.09;100.00;163465.00;5092269;28;20107;-59
2022/10/30 05:02:59;;;;;;;24.65;14.38;;;;;;;11.04;100.00;163451.50;5090496;28;20131;-60
2022/10/30 05:05:25;;;;;;;41.10;15.40;;;;;;;10.98;100.00;163435.31;5092219;28;20110;-59
2022/10/30 05:07:50;;;;;;;29.55;12.63;;;;;;;10.95;100.00;163427.19;5082180;28;20102;-59
2022/10/30 05:10:17;;;;;;;27.05;12.88;;;;;;;10.92;100.00;163419.06;5071499;28;20031;-59
2022/10/30 05:12:44;;;;;;;21.30;15.27;;;;;;;10.89;100.00;163411.00;5070770;28;20043;-60
2022/10/30 05:15:10;;;;;;;24.17;16.08;;;;;;;10.86;100.00;163404.25;5090067;28;21664;-60
2022/10/30 05:17:35;;;;;;;26.45;14.15;;;;;;;10.86;100.00;163402.88;5090498;28;20064;-59
2022/10/30 05:20:00;;;;;;;26.48;14.70;;;;;;;10.86;100.00;163404.25;5091680;28;20086;-59
2022/10/30 05:22:26;;;;;;;26.50;16.10;;;;;;;10.89;100.00;163411.00;5089998;28;20051;-60
2022/10/30 05:24:51;;;;;;;20.75;14.50;;;;;;;10.88;100.00;163408.28;5091878;28;20573;-59
2022/10/30 05:27:16;;;;;;;24.42;15.35;;;;;;;10.84;100.00;163397.47;5089767;28;20032;-59
2022/10/30 05:29:42;;;;;;;26.60;15.00;;;;;;;10.87;100.00;163405.59;5091482;28;20027;-59
2022/10/30 05:32:07;;;;;;;22.20;14.43;;;;;;;10.85;100.00;163400.19;5090135;28;20054;-60
2022/10/30 05:34:32;;;;;;;23.55;16.05;;;;;;;10.81;100.00;163390.72;5080442;28;20032;-60
2022/10/30 05:36:58;;;;;;;22.40;14.25;;;;;;;10.78;100.00;163384.00;5070097;28;20049;-59
2022/10/30 05:39:23;;;;;;;26.10;14.60;;;;;;;10.73;100.00;163370.50;5071207;28;20025;-59
2022/10/30 05:41:48;;;;;;;56.50;17.45;;;;;;;10.70;100.00;163361.06;5069456;28;20036;-59
2022/10/30 05:44:14;;;;;;;29.10;14.18;;;;;;;10.65;100.00;163348.91;5076021;28;20645;-60
2022/10/30 05:46:39;;;;;;;24.67;16.42;;;;;;;10.61;100.00;163338.13;5071099;28;20533;-60
2022/10/30 05:49:05;;;;;;;23.42;14.65;;;;;;;10.59;100.00;163332.72;5089011;28;20028;-59
2022/10/30 05:51:30;;;;;;;23.55;15.57;;;;;;;10.57;100.00;163328.66;5089799;28;20031;-59
2022/10/30 05:53:56;;;;;;;26.02;15.60;;;;;;;10.55;100.00;163321.88;5091037;28;20028;-60
2022/10/30 05:56:21;;;;;;;21.65;16.60;;;;;;;10.53;100.00;163316.53;5089516;28;20158;-59
2022/10/30 05:58:50;;;;;;;21.45;14.27;;;;;;;10.43;100.00;163292.22;5091352;28;20020;-60
2022/10/30 06:01:16;;;;;;;22.38;14.40;;;;;;;10.51;100.00;163311.09;5089593;28;20058;-59
2022/10/30 06:03:42;;;;;;;34.20;15.98;;;;;;;10.48;100.00;160614.06;5090784;28;20107;-60
2022/10/30 06:06:08;;;;;;;28.30;17.27;;;;;;;10.45;100.00;156689.34;5090428;28;20020;-59
2022/10/30 06:08:33;;;;;;;21.02;15.23;;;;;;;10.44;100.00;153412.75;5089763;28;20063;-60
2022/10/30 06:10:59;;;;;;;28.20;14.63;;;;;;;10.42;100.00;150587.78;5090941;28;20016;-59
2022/10/30 06:13:24;;;;;;;23.13;16.02;;;;;;;10.41;100.00;149174.91;5084263;28;20028;-59
2022/10/30 06:15:49;;;;;;;23.08;16.73;;;;;;;10.37;100.00;150223.09;5070942;28;20054;-60
2022/10/30 06:18:15;;;;;;;29.30;15.93;;;;;;;10.31;100.00;152676.03;5068956;28;20036;-59
2022/10/30 06:20:40;;;;;;;21.70;15.15;;;;;;;10.26;100.00;152663.44;5070780;28;20040;-59
2022/10/30 06:23:07;;;;;;;24.65;14.75;;;;;;;10.22;100.00;152299.72;5079943;28;20036;-60
2022/10/30 06:25:34;;;;;;;23.83;15.65;;;;;;;10.19;100.00;151587.47;5090625;28;20039;-59
2022/10/30 06:28:00;;;;;;;31.77;16.63;;;;;;;10.22;100.00;148073.13;5089142;28;20115;-60
2022/10/30 06:30:26;;;;;;;25.50;15.90;;;;;;;10.23;100.00;144556.66;5091060;28;20532;-59
2022/10/30 06:32:56;;;;;;;24.35;18.83;;;;;;;10.26;100.00;140696.22;5088814;28;20040;-59
2022/10/30 06:35:21;;;;;;;29.75;19.15;;;;;;;10.29;100.00;136137.97;5090899;28;20036;-60
2022/10/30 06:37:48;;;;;;;34.72;18.95;;;;;;;10.32;100.00;131231.38;5071173;28;20044;-59
2022/10/30 06:40:14;;;;;;;37.55;19.15;;;;;;;10.41;100.00;127394.78;5070077;28;20035;-59
2022/10/30 06:42:43;;;;;;;25.45;18.33;;;;;;;10.52;100.00;123912.72;5069302;28;20504;-59
2022/10/30 06:45:10;;;;;;;30.10;17.08;;;;;;;10.57;100.00;120772.50;5089542;28;20035;-60
2022/10/30 06:47:35;;;;;;;21.23;15.80;;;;;;;10.61;100.00;117981.94;5088833;28;20040;-60
2022/10/30 06:50:01;;;;;;;27.67;19.23;;;;;;;10.76;100.00;114165.06;5090754;28;20023;-60
2022/10/30 06:52:26;;;;;;;29.45;18.75;;;;;;;10.83;100.00;110333.75;5089295;28;20064;-60
2022/10/30 06:54:51;;;;;;;31.13;17.15;;;;;;;10.92;100.00;107208.25;5089741;28;20029;-60
2022/10/30 06:57:17;;;;;;;31.58;16.02;;;;;;;10.96;100.00;104773.25;5068788;28;20052;-60
2022/10/30 06:59:42;;;;;;;25.58;17.98;;;;;;;11.01;100.00;103386.03;5070563;28;20025;-60
2022/10/30 07:02:09;;;;;;;25.10;17.92;;;;;;;11.09;100.00;102005.72;5068527;28;20036;-60
2022/10/30 07:04:34;;;;;;;32.33;17.38;;;;;;;11.14;100.00;101663.75;5070359;28;20441;-60
2022/10/30 07:07:00;;;;;;;23.83;16.40;;;;;;;11.17;100.00;101668.72;5068673;28;20039;-60
2022/10/30 07:09:25;;;;;;;26.55;17.15;;;;;;;11.18;100.00;101322.59;5070021;28;20434;-60
2022/10/30 07:11:50;;;;;;;25.75;16.33;;;;;;;11.26;100.00;100637.75;5071336;28;20037;-60
2022/10/30 07:14:16;;;;;;;40.25;19.90;;;;;;;11.36;100.00;99259.06;5090306;28;20035;-60
2022/10/30 07:16:41;;;;;;;34.63;17.35;;;;;;;11.51;100.00;97539.88;5088371;28;20109;-60
2022/10/30 07:19:06;;;;;;;23.75;18.10;;;;;;;11.58;100.00;96854.03;5093327;28;20028;-60
2022/10/30 07:21:32;;;;;;;22.63;15.15;;;;;;;11.60;100.00;97554.13;5073413;28;20020;-60
2022/10/30 07:23:57;;;;;;;40.03;17.02;;;;;;;11.72;100.00;97573.13;5073648;28;20029;-60
2022/10/30 07:26:22;;;;;;;28.58;15.75;;;;;;;11.88;100.00;97248.22;5072287;28;20074;-60
2022/10/30 07:28:48;;;;;;;23.73;16.27;;;;;;;11.96;100.00;98306.97;5073848;28;20078;-60
2022/10/30 07:31:13;;;;;;;23.08;15.18;;;;;;;12.02;100.00;100409.03;5071843;28;20041;-55
2022/10/30 07:33:38;;;;;;;29.45;17.23;;;;;;;12.06;100.00;102161.72;5073848;28;20009;-60
2022/10/30 07:36:04;;;;;;;26.75;14.38;;;;;;;12.20;100.00;102882.63;5073579;28;20368;-60
2022/10/30 07:38:29;;;;;;;32.78;17.98;;;;;;;12.41;100.00;104662.56;5091486;28;20100;-60
2022/10/30 07:40:55;;;;;;;23.77;14.50;;;;;;;12.51;100.00;108877.91;5094108;28;20020;-60
2022/10/30 07:43:20;;;;;;;33.05;16.63;;;;;;;12.65;100.00;113805.47;5077179;28;20055;-60
2022/10/30 07:45:46;;;;;;;29.63;16.40;;;;;;;12.74;100.00;119783.47;5073049;28;20373;-60
2022/10/30 07:48:11;;;;;;;18.83;14.20;;;;;;;12.83;100.00;126125.44;5071808;28;20041;-60
2022/10/30 07:50:36;;;;;;;23.15;14.73;;;;;;;12.93;100.00;133890.41;5073575;28;20377;-60
2022/10/30 07:53:02;;;;;;;23.42;14.80;;;;;;;13.00;100.00;141665.59;5071475;28;20041;-60
2022/10/30 07:55:27;;;;;;;18.52;13.43;;;;;;;13.09;100.00;148752.22;5073392;28;20031;-60
2022/10/30 07:57:52;;;;;;;26.33;16.17;;;;;;;13.24;100.00;157313.53;5090258;28;20044;-60
2022/10/30 08:00:18;;;;;;;26.73;15.73;;;;;;;13.44;100.00;164078.56;5093328;28;20044;-60
2022/10/30 08:02:48;;;;;;;21.83;14.27;;;;;;;13.62;100.00;164127.22;5091857;28;20042;-60
2022/10/30 08:05:13;;;;;;;21.98;13.75;;;;;;;13.74;100.00;164156.94;5093102;28;20035;-60
2022/10/30 08:07:39;;;;;;;23.70;13.02;;;;;;;13.88;100.00;164194.84;5091825;28;20101;-60
2022/10/30 08:10:06;;;;;;;25.92;13.73;;;;;;;14.05;100.00;164239.47;5093144;28;20017;-60
2022/10/30 08:12:32;;;;;;;28.02;12.05;;;;;;;14.20;100.00;164278.69;5073455;28;20041;-60
2022/10/30 08:14:58;;;;;;;22.08;13.93;;;;;;;14.38;100.00;164324.72;5074955;28;20055;-60
2022/10/30 08:17:23;;;;;;;19.15;12.35;;;;;;;14.59;100.00;164381.53;5091348;28;20559;-60
2022/10/30 08:19:49;;;;;;;24.35;10.23;;;;;;;14.79;100.00;164432.97;5076906;28;20020;-60
2022/10/30 08:22:14;;;;;;;25.02;13.93;;;;;;;15.05;100.00;164500.66;5071379;28;20047;-60
2022/10/30 08:24:39;;;;;;;22.27;11.93;;;;;;;15.34;100.00;164576.47;5072422;28;20024;-60
2022/10/30 08:27:05;;;;;;;15.90;10.57;;;;;;;15.59;100.00;164641.47;5071336;28;20040;-60
2022/10/30 08:29:30;;;;;;;17.20;11.00;;;;;;;15.74;100.00;164682.06;5071940;28;20040;-60
2022/10/30 08:31:55;;;;;;;23.35;10.57;;;;;;;15.77;100.00;164690.16;5070865;28;20592;-60
2022/10/30 08:34:21;;;;;;;22.45;11.38;;;;;;;15.80;100.00;164696.94;5080806;28;20016;-60
2022/10/30 08:36:50;;;;;;;22.00;12.75;;;;;;;15.84;100.00;164709.19;5091334;28;20389;-60
2022/10/30 08:39:16;;;;;;;26.38;13.90;;;;;;;15.97;100.00;164741.72;5089712;28;20059;-60
2022/10/30 08:41:42;;;;;;;20.23;10.18;;;;;;;15.98;100.00;164744.38;5086633;28;20032;-61
2022/10/30 08:44:07;;;;;;;18.98;11.48;;;;;;;15.89;100.00;164720.03;5071028;28;20074;-61
2022/10/30 08:46:32;;;;;;;21.27;10.65;;;;;;;15.89;100.00;164721.38;5074364;28;20024;-60
2022/10/30 08:48:58;;;;;;;24.42;10.70;;;;;;;15.98;100.00;164744.38;5092593;28;20036;-60
2022/10/30 08:51:23;;;;;;;19.17;11.45;;;;;;;16.02;100.00;164755.22;5090925;28;20020;-61
2022/10/30 08:53:48;;;;;;;20.23;12.13;;;;;;;16.02;100.00;164755.22;5092167;28;20384;-61
2022/10/30 08:56:14;;;;;;;23.83;10.20;;;;;;;16.14;100.00;164786.38;5075801;28;20021;-59
2022/10/30 08:58:39;;;;;;;19.15;11.77;;;;;;;16.17;100.00;164795.88;5072049;28;20021;-61
2022/10/30 09:01:05;;;;;;;17.70;10.07;;;;;;;16.30;100.00;164828.34;5071597;28;20024;-60
2022/10/30 09:03:30;;;;;;;18.70;10.38;;;;;;;16.30;100.00;164828.34;5073142;28;20089;-61
2022/10/30 09:05:58;;;;;;;24.80;10.85;;;;;;;16.55;100.00;164893.38;5072154;28;20025;-61
2022/10/30 09:08:24;;;;;;;17.05;10.45;;;;;;;16.77;100.00;164951.59;5069805;28;20060;-61
2022/10/30 09:10:56;;;;;;;20.77;10.90;;;;;;;16.81;100.00;164963.81;5082234;28;20154;-60
2022/10/30 09:13:22;;;;;;;17.08;10.48;;;;;;;16.96;100.00;165001.78;5090200;28;20559;-58
2022/10/30 09:15:48;;;;;;;21.58;10.88;;;;;;;17.01;100.00;165015.38;5091590;28;20024;-58
2022/10/30 09:18:13;;;;;;;18.35;10.07;;;;;;;17.01;100.00;165015.38;5090334;28;20042;-58
2022/10/30 09:20:38;;;;;;;21.38;12.88;;;;;;;17.02;100.00;165016.72;5091845;28;20020;-58
2022/10/30 09:23:04;;;;;;;12.10;9.90;;;;;;;17.10;100.00;165038.41;5090042;28;20398;-58
2022/10/30 09:25:29;;;;;;;12.77;8.88;;;;;;;17.22;100.00;165070.91;5091743;28;20050;-58
2022/10/30 09:27:55;;;;;;;23.52;11.02;;;;;;;17.39;100.00;165114.28;5090251;28;20051;-58
2022/10/30 09:30:20;;;;;;;16.70;10.02;;;;;;;17.60;100.00;165169.84;5091617;28;20447;-58
2022/10/30 09:32:56;;;;;;;20.55;10.70;;;;;;;17.92;100.00;165255.25;5090249;28;20542;-58
2022/10/30 09:35:21;;;;;;;31.42;11.75;;;;;;;18.27;100.00;165346.16;5074784;28;20028;-58
2022/10/30 09:37:47;;;;;;;13.68;10.27;;;;;;;18.63;100.00;165441.06;5069746;28;20560;-59
2022/10/30 09:40:35;;;;;;;21.88;9.40;;;;;;;19.12;100.00;165569.97;5070543;28;20033;-58
2022/10/30 09:43:27;;;;;;;18.27;8.85;;;;;;;19.62;100.00;165701.53;5069687;28;20127;-58
2022/10/30 09:46:30;;;;;;;19.92;9.70;;;;;;;19.80;100.00;165749.06;5070931;28;20032;-58
2022/10/30 09:49:30;;;;;;;25.40;9.93;;;;;;;20.09;100.00;165823.72;5087018;28;20707;-58
2022/10/30 09:52:03;;;;;;;12.45;8.77;;;;;;;20.22;100.00;165859.00;5089649;28;20384;-58
2022/10/30 09:54:52;;;;;;;14.27;8.60;;;;;;;20.40;100.00;165905.16;5091613;28;20051;-58
2022/10/30 09:57:40;;;;;;;16.85;8.20;;;;;;;20.29;100.00;165878.00;5076303;28;20040;-58
2022/10/30 10:00:09;;;;;;;;;;;;;;;20.44;100.00;165916.00;5071110;28;20027;-59
2022/10/30 10:02:37;;;;;;;21.23;9.75;;;;;;;20.50;100.00;165932.34;5069677;28;20368;-58
2022/10/30 10:05:05;;;;;;;;;;;;;;;20.67;100.00;165977.13;5085894;28;20085;-58
2022/10/30 10:07:43;;;;;;;;;;;;;;;20.41;100.00;165907.88;5078907;28;20284;-58
2022/10/30 10:10:17;;;;;;;20.98;9.30;;;;;;;20.27;100.00;165872.63;5087497;28;19990;-58
2022/10/30 10:12:45;;;;;;;20.33;8.73;;;;;;;19.88;100.00;165769.44;5089822;28;20048;-58
2022/10/30 10:15:21;;;;;;;22.25;9.45;;;;;;;19.71;100.00;165723.25;5090580;28;20069;-58
2022/10/30 10:17:46;;;;;;;17.70;9.50;;;;;;;19.43;100.00;165649.97;5089796;28;20035;-58
2022/10/30 10:20:26;;;;;;;14.73;8.45;;;;;;;19.26;100.00;165606.56;5090937;28;20016;-58
2022/10/30 10:22:51;;;;;;;15.30;9.38;;;;;;;19.32;100.00;165622.84;5089135;28;20040;-58
2022/10/30 10:25:19;;;;;;;22.20;9.75;;;;;;;19.41;100.00;165644.53;5089253;28;20047;-58
2022/10/30 10:28:01;;;;;;;19.27;8.77;;;;;;;19.31;100.00;165618.78;5069604;28;20462;-58
2022/10/30 10:30:40;;;;;;;25.27;10.48;;;;;;;19.30;100.00;165616.06;5070493;28;20104;-59
2022/10/30 10:33:36;;;;;;;19.25;9.07;;;;;;;19.34;100.00;165628.28;5089209;28;20048;-58
2022/10/30 10:36:23;;;;;;;19.88;9.77;;;;;;;19.40;100.00;165641.88;5085369;28;20024;-58
2022/10/30 10:39:22;;;;;;;15.77;9.07;;;;;;;19.57;100.00;165686.63;5089617;28;20044;-58
2022/10/30 10:42:01;;;;;;;21.00;11.23;;;;;;;19.56;100.00;165685.25;5089608;28;20071;-58
2022/10/30 10:44:32;;;;;;;19.92;10.65;;;;;;;19.62;100.00;165701.53;5090551;28;20157;-58
2022/10/30 10:47:18;;;;;;;16.45;10.65;;;;;;;19.78;100.00;165743.63;5088950;28;20043;-58
2022/10/30 10:49:55;;;;;;;20.65;10.95;;;;;;;19.96;100.00;165791.16;5073371;28;20013;-59
2022/10/30 10:52:28;;;;;;;15.88;9.27;;;;;;;19.94;100.00;165784.38;5070331;28;20053;-58
2022/10/30 10:55:03;;;;;;;18.38;10.55;;;;;;;20.12;100.00;165833.22;5074619;28;20020;-58
2022/10/30 10:57:33;;;;;;;23.08;9.77;;;;;;;20.30;100.00;165879.38;5073071;28;20089;-59
2022/10/30 11:00:12;;;;;;;20.48;9.70;;;;;;;20.45;100.00;165918.72;5074446;28;20456;-58
2022/10/30 11:02:44;;;;;;;25.63;11.50;;;;;;;20.44;100.00;165916.00;5072995;28;20094;-59
2022/10/30 11:05:23;;;;;;;19.75;9.10;;;;;;;20.42;100.00;165910.63;5089005;28;20050;-58
2022/10/30 11:07:49;;;;;;;28.98;12.18;;;;;;;20.47;100.00;165924.16;5093093;28;20100;-58
2022/10/30 11:10:18;;;;;;;20.55;9.13;;;;;;;20.56;100.00;165947.22;5094352;28;20418;-58